Chemung, Illinois
Current Conditions -  °F | °C
As of 7:35 AM on Friday 19 Dec 2014 (Local Time) from KBUU Reporting Station
Overcast Overcast  
Wind Chill: 25°   Ceiling: 1800
Heat Index: 25°   Visibility: 10mi
Dew Point: 20°   Wind: 0mph
Humidity: 82%   Direction: NA
Pressure: 30.3"   Gusts: NA
Location:  42.4267°N, 88.599°W
Report Text: KBUU 191335Z AUTO 00000KT 10SM OVC018 M04/M07 A3030 RMK AO2 T10411068
Loading
Personal Weather Stations






























Interactive Weather Map New forecast layout! Learn more

10-Day Weather Forecast

Advertisements
Track Severe Weather on mobile